sensor_id;sensor_type;location;lat;lon;timestamp;temperature;humidity
12819;DHT22;6474;53.474;9.894;2023-05-23T00:01:17;18.30;64.50
12819;DHT22;6474;53.474;9.894;2023-05-23T00:03:45;18.40;64.60
12819;DHT22;6474;53.474;9.894;2023-05-23T00:06:18;18.40;64.70
12819;DHT22;6474;53.474;9.894;2023-05-23T00:08:47;18.40;64.70
12819;DHT22;6474;53.474;9.894;2023-05-23T00:11:16;18.40;64.70
12819;DHT22;6474;53.474;9.894;2023-05-23T00:13:45;18.40;64.60
12819;DHT22;6474;53.474;9.894;2023-05-23T00:16:14;18.40;64.60
12819;DHT22;6474;53.474;9.894;2023-05-23T00:18:42;18.40;64.60
12819;DHT22;6474;53.474;9.894;2023-05-23T00:21:11;18.40;64.60
12819;DHT22;6474;53.474;9.894;2023-05-23T00:23:39;18.40;64.60
12819;DHT22;6474;53.474;9.894;2023-05-23T00:26:07;18.40;64.70
12819;DHT22;6474;53.474;9.894;2023-05-23T00:28:36;18.40;64.70
12819;DHT22;6474;53.474;9.894;2023-05-23T00:31:04;18.40;64.70
12819;DHT22;6474;53.474;9.894;2023-05-23T00:33:34;18.40;64.70
12819;DHT22;6474;53.474;9.894;2023-05-23T00:36:02;18.40;64.80
12819;DHT22;6474;53.474;9.894;2023-05-23T00:38:32;18.40;64.80
12819;DHT22;6474;53.474;9.894;2023-05-23T00:41:02;18.40;64.80
12819;DHT22;6474;53.474;9.894;2023-05-23T00:43:29;18.40;64.80
12819;DHT22;6474;53.474;9.894;2023-05-23T00:45:59;18.40;64.80
12819;DHT22;6474;53.474;9.894;2023-05-23T00:48:27;18.40;64.80
12819;DHT22;6474;53.474;9.894;2023-05-23T00:50:57;18.30;64.70
12819;DHT22;6474;53.474;9.894;2023-05-23T00:53:26;18.30;64.70
12819;DHT22;6474;53.474;9.894;2023-05-23T00:55:54;18.30;64.70
12819;DHT22;6474;53.474;9.894;2023-05-23T00:58:22;18.30;64.70
12819;DHT22;6474;53.474;9.894;2023-05-23T01:00:51;18.30;64.80
12819;DHT22;6474;53.474;9.894;2023-05-23T01:03:20;18.30;64.70
12819;DHT22;6474;53.474;9.894;2023-05-23T01:05:49;18.30;64.80
12819;DHT22;6474;53.474;9.894;2023-05-23T01:08:20;18.30;64.90
12819;DHT22;6474;53.474;9.894;2023-05-23T01:10:48;18.30;64.90
12819;DHT22;6474;53.474;9.894;2023-05-23T01:13:23;18.30;64.90
12819;DHT22;6474;53.474;9.894;2023-05-23T01:15:58;18.30;64.90
12819;DHT22;6474;53.474;9.894;2023-05-23T01:18:34;18.30;64.90
12819;DHT22;6474;53.474;9.894;2023-05-23T01:21:06;18.30;64.90
12819;DHT22;6474;53.474;9.894;2023-05-23T01:23:59;18.30;65.00
12819;DHT22;6474;53.474;9.894;2023-05-23T01:26:32;18.20;65.10
12819;DHT22;6474;53.474;9.894;2023-05-23T01:29:21;18.10;65.30
12819;DHT22;6474;53.474;9.894;2023-05-23T01:31:52;18.00;65.40
12819;DHT22;6474;53.474;9.894;2023-05-23T01:34:20;18.00;65.60
12819;DHT22;6474;53.474;9.894;2023-05-23T01:36:49;17.90;65.60
12819;DHT22;6474;53.474;9.894;2023-05-23T01:39:20;17.90;65.70
12819;DHT22;6474;53.474;9.894;2023-05-23T01:41:48;17.80;65.90
12819;DHT22;6474;53.474;9.894;2023-05-23T01:44:18;17.70;65.90
12819;DHT22;6474;53.474;9.894;2023-05-23T01:46:47;17.60;65.80
12819;DHT22;6474;53.474;9.894;2023-05-23T01:49:16;17.60;66.00
12819;DHT22;6474;53.474;9.894;2023-05-23T01:51:48;17.50;66.00
12819;DHT22;6474;53.474;9.894;2023-05-23T01:54:16;17.40;66.10
12819;DHT22;6474;53.474;9.894;2023-05-23T01:56:46;17.40;66.20
12819;DHT22;6474;53.474;9.894;2023-05-23T01:59:14;17.30;66.30
12819;DHT22;6474;53.474;9.894;2023-05-23T02:01:44;17.30;66.30
12819;DHT22;6474;53.474;9.894;2023-05-23T02:04:12;17.30;66.40
12819;DHT22;6474;53.474;9.894;2023-05-23T02:06:41;17.20;66.30
12819;DHT22;6474;53.474;9.894;2023-05-23T02:09:10;17.20;66.40
12819;DHT22;6474;53.474;9.894;2023-05-23T02:11:37;17.20;66.50
12819;DHT22;6474;53.474;9.894;2023-05-23T02:14:06;17.10;66.40
12819;DHT22;6474;53.474;9.894;2023-05-23T02:16:34;17.10;66.60
12819;DHT22;6474;53.474;9.894;2023-05-23T02:19:04;17.10;66.60
12819;DHT22;6474;53.474;9.894;2023-05-23T02:21:32;17.00;66.50
12819;DHT22;6474;53.474;9.894;2023-05-23T02:24:01;17.00;66.50
12819;DHT22;6474;53.474;9.894;2023-05-23T02:26:29;17.00;66.60
12819;DHT22;6474;53.474;9.894;2023-05-23T02:28:57;16.90;66.60
12819;DHT22;6474;53.474;9.894;2023-05-23T02:31:25;16.80;66.70
12819;DHT22;6474;53.474;9.894;2023-05-23T02:33:53;16.80;66.90
12819;DHT22;6474;53.474;9.894;2023-05-23T02:36:22;16.80;66.90
12819;DHT22;6474;53.474;9.894;2023-05-23T02:38:50;16.70;66.90
12819;DHT22;6474;53.474;9.894;2023-05-23T02:41:18;16.70;66.90
12819;DHT22;6474;53.474;9.894;2023-05-23T02:43:46;16.70;66.90
12819;DHT22;6474;53.474;9.894;2023-05-23T02:46:14;16.70;66.90
12819;DHT22;6474;53.474;9.894;2023-05-23T02:48:42;16.70;67.00
12819;DHT22;6474;53.474;9.894;2023-05-23T02:51:11;16.70;67.00
12819;DHT22;6474;53.474;9.894;2023-05-23T02:53:40;16.70;67.00
12819;DHT22;6474;53.474;9.894;2023-05-23T02:56:08;16.70;66.90
12819;DHT22;6474;53.474;9.894;2023-05-23T02:58:37;16.70;66.90
12819;DHT22;6474;53.474;9.894;2023-05-23T03:01:05;16.60;66.70
12819;DHT22;6474;53.474;9.894;2023-05-23T03:03:34;16.70;66.80
12819;DHT22;6474;53.474;9.894;2023-05-23T03:06:02;16.70;66.70
12819;DHT22;6474;53.474;9.894;2023-05-23T03:08:31;16.70;66.70
12819;DHT22;6474;53.474;9.894;2023-05-23T03:11:01;16.70;66.70
12819;DHT22;6474;53.474;9.894;2023-05-23T03:13:29;16.70;66.80
12819;DHT22;6474;53.474;9.894;2023-05-23T03:15:57;16.60;66.60
12819;DHT22;6474;53.474;9.894;2023-05-23T03:18:25;16.70;66.70
12819;DHT22;6474;53.474;9.894;2023-05-23T03:20:53;16.60;66.70
12819;DHT22;6474;53.474;9.894;2023-05-23T03:23:21;16.60;66.70
12819;DHT22;6474;53.474;9.894;2023-05-23T03:25:49;16.50;66.80
12819;DHT22;6474;53.474;9.894;2023-05-23T03:28:18;16.50;66.90
12819;DHT22;6474;53.474;9.894;2023-05-23T03:30:46;16.50;67.00
12819;DHT22;6474;53.474;9.894;2023-05-23T03:33:14;16.50;67.00
12819;DHT22;6474;53.474;9.894;2023-05-23T03:35:42;16.50;67.00
12819;DHT22;6474;53.474;9.894;2023-05-23T03:38:10;16.50;67.00
12819;DHT22;6474;53.474;9.894;2023-05-23T03:40:38;16.40;66.90
12819;DHT22;6474;53.474;9.894;2023-05-23T03:43:06;16.40;66.90
12819;DHT22;6474;53.474;9.894;2023-05-23T03:45:36;16.50;67.00
12819;DHT22;6474;53.474;9.894;2023-05-23T03:48:04;16.40;67.70
12819;DHT22;6474;53.474;9.894;2023-05-23T03:50:32;16.30;67.00
12819;DHT22;6474;53.474;9.894;2023-05-23T03:53:00;16.30;67.10
12819;DHT22;6474;53.474;9.894;2023-05-23T03:55:30;16.30;67.00
12819;DHT22;6474;53.474;9.894;2023-05-23T03:57:58;16.30;67.10
12819;DHT22;6474;53.474;9.894;2023-05-23T04:00:27;16.30;67.10
12819;DHT22;6474;53.474;9.894;2023-05-23T04:02:56;16.30;67.10
12819;DHT22;6474;53.474;9.894;2023-05-23T04:05:24;16.30;67.10
12819;DHT22;6474;53.474;9.894;2023-05-23T04:07:52;16.30;67.10
12819;DHT22;6474;53.474;9.894;2023-05-23T04:10:20;16.30;67.10
12819;DHT22;6474;53.474;9.894;2023-05-23T04:12:48;16.30;67.10
12819;DHT22;6474;53.474;9.894;2023-05-23T04:15:17;16.30;67.10
12819;DHT22;6474;53.474;9.894;2023-05-23T04:17:47;16.20;67.10
12819;DHT22;6474;53.474;9.894;2023-05-23T04:20:16;16.20;67.10
12819;DHT22;6474;53.474;9.894;2023-05-23T04:22:44;16.20;67.10
12819;DHT22;6474;53.474;9.894;2023-05-23T04:25:12;16.20;67.20
12819;DHT22;6474;53.474;9.894;2023-05-23T04:27:40;16.20;67.30
12819;DHT22;6474;53.474;9.894;2023-05-23T04:30:08;16.10;67.40
12819;DHT22;6474;53.474;9.894;2023-05-23T04:32:37;16.20;67.30
12819;DHT22;6474;53.474;9.894;2023-05-23T04:35:06;16.10;67.30
12819;DHT22;6474;53.474;9.894;2023-05-23T04:37:35;16.10;67.30
12819;DHT22;6474;53.474;9.894;2023-05-23T04:40:04;16.10;67.20
12819;DHT22;6474;53.474;9.894;2023-05-23T04:42:32;16.10;67.20
12819;DHT22;6474;53.474;9.894;2023-05-23T04:45:01;16.20;67.30
12819;DHT22;6474;53.474;9.894;2023-05-23T04:47:29;16.20;67.20
12819;DHT22;6474;53.474;9.894;2023-05-23T04:50:03;16.20;67.20
12819;DHT22;6474;53.474;9.894;2023-05-23T04:52:31;16.20;67.00
12819;DHT22;6474;53.474;9.894;2023-05-23T04:55:01;16.20;67.10
12819;DHT22;6474;53.474;9.894;2023-05-23T04:57:29;16.30;67.10
12819;DHT22;6474;53.474;9.894;2023-05-23T04:59:57;16.20;66.90
12819;DHT22;6474;53.474;9.894;2023-05-23T05:02:25;16.20;67.00
12819;DHT22;6474;53.474;9.894;2023-05-23T05:04:53;16.20;67.10
12819;DHT22;6474;53.474;9.894;2023-05-23T05:07:21;16.20;67.10
12819;DHT22;6474;53.474;9.894;2023-05-23T05:09:48;16.20;67.00
12819;DHT22;6474;53.474;9.894;2023-05-23T05:12:18;16.20;67.00
12819;DHT22;6474;53.474;9.894;2023-05-23T05:14:46;16.20;67.00
12819;DHT22;6474;53.474;9.894;2023-05-23T05:17:14;16.20;67.00
12819;DHT22;6474;53.474;9.894;2023-05-23T05:19:42;16.20;67.00
12819;DHT22;6474;53.474;9.894;2023-05-23T05:22:10;16.20;67.00
12819;DHT22;6474;53.474;9.894;2023-05-23T05:24:38;16.20;67.10
12819;DHT22;6474;53.474;9.894;2023-05-23T05:27:07;16.20;67.20
12819;DHT22;6474;53.474;9.894;2023-05-23T05:29:38;16.20;67.30
12819;DHT22;6474;53.474;9.894;2023-05-23T05:32:06;16.20;67.20
12819;DHT22;6474;53.474;9.894;2023-05-23T05:34:35;16.20;67.20
12819;DHT22;6474;53.474;9.894;2023-05-23T05:37:03;16.20;67.20
12819;DHT22;6474;53.474;9.894;2023-05-23T05:39:31;16.20;67.20
12819;DHT22;6474;53.474;9.894;2023-05-23T05:41:59;16.20;67.10
12819;DHT22;6474;53.474;9.894;2023-05-23T05:44:29;16.20;67.20
12819;DHT22;6474;53.474;9.894;2023-05-23T05:46:58;16.20;67.20
12819;DHT22;6474;53.474;9.894;2023-05-23T05:49:26;16.20;67.20
12819;DHT22;6474;53.474;9.894;2023-05-23T05:51:54;16.20;67.10
12819;DHT22;6474;53.474;9.894;2023-05-23T05:54:21;16.20;67.10
12819;DHT22;6474;53.474;9.894;2023-05-23T05:56:49;16.20;67.10
12819;DHT22;6474;53.474;9.894;2023-05-23T05:59:17;16.20;67.10
12819;DHT22;6474;53.474;9.894;2023-05-23T06:01:45;16.20;67.10
12819;DHT22;6474;53.474;9.894;2023-05-23T06:04:14;16.30;67.20
12819;DHT22;6474;53.474;9.894;2023-05-23T06:06:43;16.30;67.10
12819;DHT22;6474;53.474;9.894;2023-05-23T06:09:10;16.40;67.20
12819;DHT22;6474;53.474;9.894;2023-05-23T06:11:38;16.40;67.10
12819;DHT22;6474;53.474;9.894;2023-05-23T06:14:07;16.50;67.20
12819;DHT22;6474;53.474;9.894;2023-05-23T06:16:35;16.40;67.00
12819;DHT22;6474;53.474;9.894;2023-05-23T06:19:03;16.50;67.10
12819;DHT22;6474;53.474;9.894;2023-05-23T06:21:32;16.40;67.00
12819;DHT22;6474;53.474;9.894;2023-05-23T06:24:00;16.50;67.10
12819;DHT22;6474;53.474;9.894;2023-05-23T06:26:28;16.40;67.00
12819;DHT22;6474;53.474;9.894;2023-05-23T06:28:56;16.40;67.00
12819;DHT22;6474;53.474;9.894;2023-05-23T06:31:24;16.40;67.10
12819;DHT22;6474;53.474;9.894;2023-05-23T06:33:52;16.30;67.10
12819;DHT22;6474;53.474;9.894;2023-05-23T06:36:20;16.30;67.30
12819;DHT22;6474;53.474;9.894;2023-05-23T06:38:49;16.30;67.30
12819;DHT22;6474;53.474;9.894;2023-05-23T06:41:17;16.20;67.30
12819;DHT22;6474;53.474;9.894;2023-05-23T06:43:44;16.20;67.30
12819;DHT22;6474;53.474;9.894;2023-05-23T06:46:12;16.20;67.30
12819;DHT22;6474;53.474;9.894;2023-05-23T06:48:40;16.10;67.20
12819;DHT22;6474;53.474;9.894;2023-05-23T06:51:08;16.10;67.30
12819;DHT22;6474;53.474;9.894;2023-05-23T06:53:36;16.10;67.30
12819;DHT22;6474;53.474;9.894;2023-05-23T06:56:06;16.10;67.30
12819;DHT22;6474;53.474;9.894;2023-05-23T06:58:34;16.10;67.20
12819;DHT22;6474;53.474;9.894;2023-05-23T07:01:02;16.00;67.10
12819;DHT22;6474;53.474;9.894;2023-05-23T07:03:30;16.00;67.20
12819;DHT22;6474;53.474;9.894;2023-05-23T07:05:58;16.00;67.10
12819;DHT22;6474;53.474;9.894;2023-05-23T07:08:26;16.00;67.10
12819;DHT22;6474;53.474;9.894;2023-05-23T07:10:54;16.00;67.20
12819;DHT22;6474;53.474;9.894;2023-05-23T07:13:23;15.90;67.10
12819;DHT22;6474;53.474;9.894;2023-05-23T07:15:51;15.90;67.10
12819;DHT22;6474;53.474;9.894;2023-05-23T07:18:19;15.90;67.10
12819;DHT22;6474;53.474;9.894;2023-05-23T07:20:47;15.90;67.20
12819;DHT22;6474;53.474;9.894;2023-05-23T07:23:15;15.80;67.30
12819;DHT22;6474;53.474;9.894;2023-05-23T07:25:43;15.80;67.40
12819;DHT22;6474;53.474;9.894;2023-05-23T07:28:29;15.80;67.40
12819;DHT22;6474;53.474;9.894;2023-05-23T07:30:56;15.80;67.40
12819;DHT22;6474;53.474;9.894;2023-05-23T07:33:24;15.80;67.40
12819;DHT22;6474;53.474;9.894;2023-05-23T07:35:52;15.80;67.40
12819;DHT22;6474;53.474;9.894;2023-05-23T07:38:20;15.80;67.40
12819;DHT22;6474;53.474;9.894;2023-05-23T07:40:48;15.80;67.40
12819;DHT22;6474;53.474;9.894;2023-05-23T07:43:34;15.80;67.40
12819;DHT22;6474;53.474;9.894;2023-05-23T07:46:01;15.80;67.40
12819;DHT22;6474;53.474;9.894;2023-05-23T07:48:29;15.90;67.60
12819;DHT22;6474;53.474;9.894;2023-05-23T07:50:57;15.90;67.50
12819;DHT22;6474;53.474;9.894;2023-05-23T07:53:25;15.90;67.50
12819;DHT22;6474;53.474;9.894;2023-05-23T07:55:54;15.90;67.50
12819;DHT22;6474;53.474;9.894;2023-05-23T07:58:22;16.00;67.70
12819;DHT22;6474;53.474;9.894;2023-05-23T08:00:51;16.00;67.50
12819;DHT22;6474;53.474;9.894;2023-05-23T08:03:19;16.00;67.50
12819;DHT22;6474;53.474;9.894;2023-05-23T08:05:47;16.00;67.40
12819;DHT22;6474;53.474;9.894;2023-05-23T08:08:15;16.00;67.50
12819;DHT22;6474;53.474;9.894;2023-05-23T08:10:43;16.00;67.60
12819;DHT22;6474;53.474;9.894;2023-05-23T08:13:12;16.00;67.60
12819;DHT22;6474;53.474;9.894;2023-05-23T08:15:40;16.10;67.50
12819;DHT22;6474;53.474;9.894;2023-05-23T08:18:09;16.10;67.60
12819;DHT22;6474;53.474;9.894;2023-05-23T08:20:38;16.10;67.50
12819;DHT22;6474;53.474;9.894;2023-05-23T08:23:06;16.10;67.40
12819;DHT22;6474;53.474;9.894;2023-05-23T08:25:34;16.10;67.40
12819;DHT22;6474;53.474;9.894;2023-05-23T08:28:02;16.00;67.30
12819;DHT22;6474;53.474;9.894;2023-05-23T08:30:30;16.00;67.40
12819;DHT22;6474;53.474;9.894;2023-05-23T08:32:59;16.00;67.40
12819;DHT22;6474;53.474;9.894;2023-05-23T08:35:31;15.90;67.40
12819;DHT22;6474;53.474;9.894;2023-05-23T08:38:05;15.90;67.50
12819;DHT22;6474;53.474;9.894;2023-05-23T08:40:35;15.80;67.40
12819;DHT22;6474;53.474;9.894;2023-05-23T08:43:03;15.70;67.30
12819;DHT22;6474;53.474;9.894;2023-05-23T08:45:31;15.70;67.40
12819;DHT22;6474;53.474;9.894;2023-05-23T08:48:00;15.60;67.20
12819;DHT22;6474;53.474;9.894;2023-05-23T08:50:30;15.70;67.30
12819;DHT22;6474;53.474;9.894;2023-05-23T08:52:59;15.60;67.20
12819;DHT22;6474;53.474;9.894;2023-05-23T08:55:27;15.60;67.30
12819;DHT22;6474;53.474;9.894;2023-05-23T08:57:57;15.50;67.30
12819;DHT22;6474;53.474;9.894;2023-05-23T09:00:26;15.40;67.40
12819;DHT22;6474;53.474;9.894;2023-05-23T09:02:56;15.40;67.60
12819;DHT22;6474;53.474;9.894;2023-05-23T09:05:25;15.30;67.60
12819;DHT22;6474;53.474;9.894;2023-05-23T09:07:55;15.20;67.60
12819;DHT22;6474;53.474;9.894;2023-05-23T09:10:23;15.00;67.70
12819;DHT22;6474;53.474;9.894;2023-05-23T09:12:51;14.90;67.80
12819;DHT22;6474;53.474;9.894;2023-05-23T09:15:19;14.80;68.10
12819;DHT22;6474;53.474;9.894;2023-05-23T09:17:47;14.70;68.30
12819;DHT22;6474;53.474;9.894;2023-05-23T09:20:17;14.70;68.50
12819;DHT22;6474;53.474;9.894;2023-05-23T09:22:46;14.60;68.50
12819;DHT22;6474;53.474;9.894;2023-05-23T09:25:15;14.60;68.50
12819;DHT22;6474;53.474;9.894;2023-05-23T09:27:43;14.60;68.50
12819;DHT22;6474;53.474;9.894;2023-05-23T09:30:14;14.70;68.50
12819;DHT22;6474;53.474;9.894;2023-05-23T09:32:54;14.70;68.40
12819;DHT22;6474;53.474;9.894;2023-05-23T09:35:23;14.70;68.40
12819;DHT22;6474;53.474;9.894;2023-05-23T09:37:52;14.70;68.40
12819;DHT22;6474;53.474;9.894;2023-05-23T09:40:28;14.60;68.30
12819;DHT22;6474;53.474;9.894;2023-05-23T09:43:01;14.70;68.40
12819;DHT22;6474;53.474;9.894;2023-05-23T09:45:30;14.70;68.40
12819;DHT22;6474;53.474;9.894;2023-05-23T09:47:59;14.70;68.40
12819;DHT22;6474;53.474;9.894;2023-05-23T09:50:30;14.60;68.40
12819;DHT22;6474;53.474;9.894;2023-05-23T09:52:59;14.60;68.40
12819;DHT22;6474;53.474;9.894;2023-05-23T09:55:28;14.70;68.60
12819;DHT22;6474;53.474;9.894;2023-05-23T09:57:58;14.60;68.40
12819;DHT22;6474;53.474;9.894;2023-05-23T10:00:26;14.60;68.40
12819;DHT22;6474;53.474;9.894;2023-05-23T10:02:59;14.60;68.40
12819;DHT22;6474;53.474;9.894;2023-05-23T10:05:34;14.60;68.50
12819;DHT22;6474;53.474;9.894;2023-05-23T10:08:07;14.60;68.50
12819;DHT22;6474;53.474;9.894;2023-05-23T10:14:00;14.60;68.50
12819;DHT22;6474;53.474;9.894;2023-05-23T10:16:34;14.60;68.40
12819;DHT22;6474;53.474;9.894;2023-05-23T10:19:07;14.50;68.30
12819;DHT22;6474;53.474;9.894;2023-05-23T10:21:42;14.50;68.40
12819;DHT22;6474;53.474;9.894;2023-05-23T10:24:13;14.50;68.50
12819;DHT22;6474;53.474;9.894;2023-05-23T10:26:44;14.50;68.50
12819;DHT22;6474;53.474;9.894;2023-05-23T10:29:12;14.50;68.50
12819;DHT22;6474;53.474;9.894;2023-05-23T10:31:40;14.50;68.50
12819;DHT22;6474;53.474;9.894;2023-05-23T10:34:14;14.50;68.50
12819;DHT22;6474;53.474;9.894;2023-05-23T10:36:52;14.50;68.50
12819;DHT22;6474;53.474;9.894;2023-05-23T10:39:32;14.60;68.60
12819;DHT22;6474;53.474;9.894;2023-05-23T10:42:10;14.60;68.60
12819;DHT22;6474;53.474;9.894;2023-05-23T10:44:38;14.70;68.50
12819;DHT22;6474;53.474;9.894;2023-05-23T10:47:06;14.80;68.40
12819;DHT22;6474;53.474;9.894;2023-05-23T10:49:38;14.80;68.20
12819;DHT22;6474;53.474;9.894;2023-05-23T10:52:07;14.80;68.20
12819;DHT22;6474;53.474;9.894;2023-05-23T10:54:36;14.80;68.10
12819;DHT22;6474;53.474;9.894;2023-05-23T10:57:10;14.80;68.10
12819;DHT22;6474;53.474;9.894;2023-05-23T10:59:38;14.80;68.20
12819;DHT22;6474;53.474;9.894;2023-05-23T11:02:11;14.90;68.30
12819;DHT22;6474;53.474;9.894;2023-05-23T11:04:41;14.90;68.30
12819;DHT22;6474;53.474;9.894;2023-05-23T11:07:27;15.10;68.30
12819;DHT22;6474;53.474;9.894;2023-05-23T11:10:08;15.10;68.10
12819;DHT22;6474;53.474;9.894;2023-05-23T11:12:39;15.20;68.10
12819;DHT22;6474;53.474;9.894;2023-05-23T11:15:20;15.30;68.10
12819;DHT22;6474;53.474;9.894;2023-05-23T11:17:52;15.40;68.00
12819;DHT22;6474;53.474;9.894;2023-05-23T11:20:22;15.50;67.80
12819;DHT22;6474;53.474;9.894;2023-05-23T11:22:53;15.60;67.70
12819;DHT22;6474;53.474;9.894;2023-05-23T11:25:38;15.70;67.70
12819;DHT22;6474;53.474;9.894;2023-05-23T11:28:08;15.80;67.50
12819;DHT22;6474;53.474;9.894;2023-05-23T11:30:36;15.90;67.60
12819;DHT22;6474;53.474;9.894;2023-05-23T11:33:06;16.00;67.70
12819;DHT22;6474;53.474;9.894;2023-05-23T11:35:48;16.00;67.70
12819;DHT22;6474;53.474;9.894;2023-05-23T11:38:17;16.10;67.80
12819;DHT22;6474;53.474;9.894;2023-05-23T11:40:46;16.10;67.80
12819;DHT22;6474;53.474;9.894;2023-05-23T11:43:16;16.20;67.80
12819;DHT22;6474;53.474;9.894;2023-05-23T11:45:45;16.30;67.60
12819;DHT22;6474;53.474;9.894;2023-05-23T11:48:14;16.30;67.60
12819;DHT22;6474;53.474;9.894;2023-05-23T11:50:44;16.40;67.60
12819;DHT22;6474;53.474;9.894;2023-05-23T11:53:13;16.50;68.30
12819;DHT22;6474;53.474;9.894;2023-05-23T11:55:48;16.50;67.40
12819;DHT22;6474;53.474;9.894;2023-05-23T11:58:18;16.40;67.20
12819;DHT22;6474;53.474;9.894;2023-05-23T12:00:46;16.40;67.40
12819;DHT22;6474;53.474;9.894;2023-05-23T12:03:14;16.30;67.40
12819;DHT22;6474;53.474;9.894;2023-05-23T12:05:43;16.40;68.40
12819;DHT22;6474;53.474;9.894;2023-05-23T12:08:11;16.50;67.80
12819;DHT22;6474;53.474;9.894;2023-05-23T12:10:48;16.70;67.80
12819;DHT22;6474;53.474;9.894;2023-05-23T12:13:18;16.90;67.40
12819;DHT22;6474;53.474;9.894;2023-05-23T12:15:46;17.00;67.00
12819;DHT22;6474;53.474;9.894;2023-05-23T12:18:18;17.00;66.80
12819;DHT22;6474;53.474;9.894;2023-05-23T12:20:48;17.00;66.90
12819;DHT22;6474;53.474;9.894;2023-05-23T12:23:19;17.00;66.90
12819;DHT22;6474;53.474;9.894;2023-05-23T12:25:49;17.00;66.90
12819;DHT22;6474;53.474;9.894;2023-05-23T12:28:20;17.10;67.00
12819;DHT22;6474;53.474;9.894;2023-05-23T12:30:49;17.00;66.90
12819;DHT22;6474;53.474;9.894;2023-05-23T12:33:18;17.10;67.00
12819;DHT22;6474;53.474;9.894;2023-05-23T12:35:46;17.20;67.10
12819;DHT22;6474;53.474;9.894;2023-05-23T12:38:14;17.30;67.10
12819;DHT22;6474;53.474;9.894;2023-05-23T12:40:43;17.40;67.00
12819;DHT22;6474;53.474;9.894;2023-05-23T12:43:11;17.40;66.70
12819;DHT22;6474;53.474;9.894;2023-05-23T12:45:40;17.40;66.70
12819;DHT22;6474;53.474;9.894;2023-05-23T12:48:09;17.40;66.60
12819;DHT22;6474;53.474;9.894;2023-05-23T12:50:37;17.40;66.50
12819;DHT22;6474;53.474;9.894;2023-05-23T12:53:05;17.40;66.40
12819;DHT22;6474;53.474;9.894;2023-05-23T12:55:33;17.30;66.30
12819;DHT22;6474;53.474;9.894;2023-05-23T12:58:01;17.10;66.20
12819;DHT22;6474;53.474;9.894;2023-05-23T13:00:29;16.90;66.30
12819;DHT22;6474;53.474;9.894;2023-05-23T13:02:58;16.70;66.50
12819;DHT22;6474;53.474;9.894;2023-05-23T13:05:27;16.70;66.90
12819;DHT22;6474;53.474;9.894;2023-05-23T13:07:54;16.70;67.10
12819;DHT22;6474;53.474;9.894;2023-05-23T13:10:25;16.70;67.10
12819;DHT22;6474;53.474;9.894;2023-05-23T13:12:56;16.90;67.30
12819;DHT22;6474;53.474;9.894;2023-05-23T13:15:24;17.00;67.10
12819;DHT22;6474;53.474;9.894;2023-05-23T13:17:54;17.20;67.00
12819;DHT22;6474;53.474;9.894;2023-05-23T13:20:25;17.20;66.80
12819;DHT22;6474;53.474;9.894;2023-05-23T13:22:55;17.30;66.80
12819;DHT22;6474;53.474;9.894;2023-05-23T13:25:24;17.50;66.70
12819;DHT22;6474;53.474;9.894;2023-05-23T13:27:52;17.60;66.60
12819;DHT22;6474;53.474;9.894;2023-05-23T13:30:22;17.60;66.30
12819;DHT22;6474;53.474;9.894;2023-05-23T13:32:50;17.50;66.30
12819;DHT22;6474;53.474;9.894;2023-05-23T13:35:18;17.50;66.50
12819;DHT22;6474;53.474;9.894;2023-05-23T13:37:48;17.50;66.50
12819;DHT22;6474;53.474;9.894;2023-05-23T13:40:17;17.60;66.50
12819;DHT22;6474;53.474;9.894;2023-05-23T13:42:47;17.60;66.50
12819;DHT22;6474;53.474;9.894;2023-05-23T13:45:17;17.60;66.40
12819;DHT22;6474;53.474;9.894;2023-05-23T13:47:45;17.60;66.50
12819;DHT22;6474;53.474;9.894;2023-05-23T13:50:13;17.60;66.60
12819;DHT22;6474;53.474;9.894;2023-05-23T13:52:41;17.80;66.60
12819;DHT22;6474;53.474;9.894;2023-05-23T13:55:16;17.80;66.20
12819;DHT22;6474;53.474;9.894;2023-05-23T13:57:44;17.70;66.20
12819;DHT22;6474;53.474;9.894;2023-05-23T14:00:13;17.50;66.20
12819;DHT22;6474;53.474;9.894;2023-05-23T14:02:41;17.50;66.30
12819;DHT22;6474;53.474;9.894;2023-05-23T14:05:09;17.50;66.30
12819;DHT22;6474;53.474;9.894;2023-05-23T14:07:37;17.50;66.40
12819;DHT22;6474;53.474;9.894;2023-05-23T14:10:07;17.50;66.10
12819;DHT22;6474;53.474;9.894;2023-05-23T14:12:36;17.40;66.00
12819;DHT22;6474;53.474;9.894;2023-05-23T14:15:05;17.30;66.10
12819;DHT22;6474;53.474;9.894;2023-05-23T14:17:34;17.20;65.90
12819;DHT22;6474;53.474;9.894;2023-05-23T14:20:02;17.10;66.00
12819;DHT22;6474;53.474;9.894;2023-05-23T14:22:30;17.00;66.00
12819;DHT22;6474;53.474;9.894;2023-05-23T14:24:57;16.90;66.20
12819;DHT22;6474;53.474;9.894;2023-05-23T14:27:25;16.80;66.30
12819;DHT22;6474;53.474;9.894;2023-05-23T14:29:55;16.90;66.40
12819;DHT22;6474;53.474;9.894;2023-05-23T14:32:22;16.90;66.30
12819;DHT22;6474;53.474;9.894;2023-05-23T14:34:50;16.80;66.20
12819;DHT22;6474;53.474;9.894;2023-05-23T14:37:18;16.80;66.10
12819;DHT22;6474;53.474;9.894;2023-05-23T14:39:46;16.60;65.90
12819;DHT22;6474;53.474;9.894;2023-05-23T14:42:14;16.50;65.90
12819;DHT22;6474;53.474;9.894;2023-05-23T14:44:42;16.40;65.80
12819;DHT22;6474;53.474;9.894;2023-05-23T14:47:11;16.40;66.10
12819;DHT22;6474;53.474;9.894;2023-05-23T14:49:38;16.30;66.10
12819;DHT22;6474;53.474;9.894;2023-05-23T14:52:06;16.30;66.20
12819;DHT22;6474;53.474;9.894;2023-05-23T14:54:34;16.20;66.20
12819;DHT22;6474;53.474;9.894;2023-05-23T14:57:02;16.20;66.20
12819;DHT22;6474;53.474;9.894;2023-05-23T14:59:30;16.10;66.00
12819;DHT22;6474;53.474;9.894;2023-05-23T15:01:58;16.10;66.10
12819;DHT22;6474;53.474;9.894;2023-05-23T15:04:27;16.00;66.10
12819;DHT22;6474;53.474;9.894;2023-05-23T15:06:55;16.10;66.20
12819;DHT22;6474;53.474;9.894;2023-05-23T15:09:23;16.10;66.10
12819;DHT22;6474;53.474;9.894;2023-05-23T15:11:51;16.00;65.80
12819;DHT22;6474;53.474;9.894;2023-05-23T15:14:19;16.00;65.80
12819;DHT22;6474;53.474;9.894;2023-05-23T15:16:48;15.90;65.80
12819;DHT22;6474;53.474;9.894;2023-05-23T15:19:16;15.90;65.90
12819;DHT22;6474;53.474;9.894;2023-05-23T15:21:46;16.00;66.10
12819;DHT22;6474;53.474;9.894;2023-05-23T15:24:17;16.00;65.80
12819;DHT22;6474;53.474;9.894;2023-05-23T15:26:45;16.00;65.80
12819;DHT22;6474;53.474;9.894;2023-05-23T15:29:14;16.00;65.80
12819;DHT22;6474;53.474;9.894;2023-05-23T15:31:43;16.00;65.80
12819;DHT22;6474;53.474;9.894;2023-05-23T15:34:11;16.00;65.90
12819;DHT22;6474;53.474;9.894;2023-05-23T15:36:39;16.00;65.70
12819;DHT22;6474;53.474;9.894;2023-05-23T15:39:09;16.00;65.80
12819;DHT22;6474;53.474;9.894;2023-05-23T15:41:38;16.00;65.70
12819;DHT22;6474;53.474;9.894;2023-05-23T15:44:06;16.00;65.60
12819;DHT22;6474;53.474;9.894;2023-05-23T15:46:34;16.00;65.50
12819;DHT22;6474;53.474;9.894;2023-05-23T15:49:02;15.90;65.30
12819;DHT22;6474;53.474;9.894;2023-05-23T15:51:47;15.80;65.30
12819;DHT22;6474;53.474;9.894;2023-05-23T15:54:16;15.80;65.50
12819;DHT22;6474;53.474;9.894;2023-05-23T15:56:44;15.90;65.40
12819;DHT22;6474;53.474;9.894;2023-05-23T15:59:12;16.00;65.50
12819;DHT22;6474;53.474;9.894;2023-05-23T16:01:39;16.00;65.50